Time;durP1;ratioP1;P1;durP2;ratioP2;P2;SDS_P1;SDS_P2;PMS_P1;PMS_P2;Temp;Humidity;BMP_temperature;BMP_pressure;BME280_temperature;BME280_humidity;BME280_pressure;Samples;Min_cycle;Max_cycle;Signal;HPM_P1;HPM_P2
2022/07/07 00:00:47;;;;;;;1.42;0.28;;;;;;;29.62;36.26;100682.09;4931933;29;20106;-70
2022/07/07 00:03:12;;;;;;;1.35;0.30;;;;;;;29.62;36.30;100671.34;4931917;29;20414;-70
2022/07/07 00:05:39;;;;;;;0.63;0.20;;;;;;;29.59;35.73;100666.53;4932054;29;20110;-70
2022/07/07 00:08:05;;;;;;;1.10;0.40;;;;;;;29.57;36.27;100665.97;4933097;29;20091;-70
2022/07/07 00:10:31;;;;;;;1.10;0.32;;;;;;;29.55;36.49;100670.81;4932162;29;20472;-70
2022/07/07 00:12:56;;;;;;;0.85;0.30;;;;;;;29.54;36.40;100666.50;4931782;29;20063;-70
2022/07/07 00:15:22;;;;;;;2.55;0.30;;;;;;;29.52;36.08;100664.09;4932475;29;20037;-70
2022/07/07 00:17:47;;;;;;;1.50;0.30;;;;;;;29.52;36.48;100657.91;4932094;29;20065;-70
2022/07/07 00:20:13;;;;;;;1.30;0.20;;;;;;;29.48;36.11;100657.63;4933026;29;20546;-72
2022/07/07 00:22:38;;;;;;;1.00;0.30;;;;;;;29.50;36.14;100655.50;4941903;29;20039;-70
2022/07/07 00:25:06;;;;;;;0.43;0.20;;;;;;;29.54;36.12;100663.81;4932188;29;20042;-70
2022/07/07 00:27:31;;;;;;;0.75;0.28;;;;;;;29.54;36.68;100661.94;4934554;28;20047;-70
2022/07/07 00:29:57;;;;;;;0.80;0.20;;;;;;;29.56;36.19;100665.16;4931756;29;20070;-70
2022/07/07 00:32:22;;;;;;;0.60;0.20;;;;;;;29.57;36.71;100664.09;4938508;29;20084;-69
2022/07/07 00:34:47;;;;;;;1.00;0.20;;;;;;;29.58;36.47;100667.59;4933664;29;20036;-70
2022/07/07 00:37:13;;;;;;;0.73;0.20;;;;;;;29.60;36.44;100673.50;4931853;29;20110;-70
2022/07/07 00:39:38;;;;;;;0.55;0.30;;;;;;;29.61;36.37;100669.75;4933531;29;20476;-70
2022/07/07 00:42:04;;;;;;;0.52;0.30;;;;;;;29.61;36.71;100672.44;4932686;29;20388;-70
2022/07/07 00:44:30;;;;;;;0.30;0.20;;;;;;;29.62;36.35;100671.34;4934296;29;20035;-70
2022/07/07 00:46:58;;;;;;;2.15;0.20;;;;;;;29.64;36.88;100674.59;4938388;29;20381;-70
2022/07/07 00:49:23;;;;;;;0.75;0.20;;;;;;;29.63;36.67;100667.59;4931399;29;21304;-69
2022/07/07 00:51:49;;;;;;;1.10;0.20;;;;;;;29.64;36.77;100674.59;4931418;29;20031;-69
2022/07/07 00:54:15;;;;;;;0.77;0.30;;;;;;;29.62;36.10;100682.91;4931116;29;20177;-69
2022/07/07 00:56:41;;;;;;;1.45;0.43;;;;;;;29.58;35.90;100691.75;4933859;29;20505;-70
2022/07/07 00:59:07;;;;;;;1.55;0.30;;;;;;;29.55;35.82;100693.09;4931066;29;20412;-69
2022/07/07 01:01:36;;;;;;;1.73;0.22;;;;;;;29.53;36.14;100695.22;4931398;29;20117;-69
2022/07/07 01:04:02;;;;;;;1.08;0.28;;;;;;;29.48;35.94;100705.13;4928415;29;20038;-69
2022/07/07 01:06:30;;;;;;;0.70;0.30;;;;;;;29.26;35.99;100716.06;4931773;29;20034;-69
2022/07/07 01:08:56;;;;;;;2.47;0.40;;;;;;;29.06;36.51;100711.38;4932594;29;20032;-70
2022/07/07 01:11:21;;;;;;;9.50;0.45;;;;;;;28.96;36.67;100733.59;4933006;29;20036;-70
2022/07/07 01:13:46;;;;;;;2.85;0.40;;;;;;;29.06;36.37;100730.97;4930478;29;20091;-70
2022/07/07 01:16:12;;;;;;;2.95;0.28;;;;;;;29.14;36.38;100732.34;4931709;29;20043;-71
2022/07/07 01:18:37;;;;;;;4.22;0.30;;;;;;;29.21;36.54;100740.97;4932076;29;20028;-70
2022/07/07 01:21:05;;;;;;;2.55;0.30;;;;;;;29.26;36.43;100742.88;4931454;29;20491;-70
2022/07/07 01:23:31;;;;;;;4.28;0.30;;;;;;;29.27;36.58;100739.13;4931028;29;20041;-70
2022/07/07 01:25:56;;;;;;;4.13;1.00;;;;;;;29.30;36.76;100734.03;4929577;29;20047;-70
2022/07/07 01:28:22;;;;;;;3.92;0.47;;;;;;;29.31;36.76;100746.38;4931899;29;20105;-71
2022/07/07 01:30:47;;;;;;;5.43;0.50;;;;;;;29.26;37.01;100741.00;4930592;29;20031;-71
2022/07/07 01:33:15;;;;;;;4.55;0.43;;;;;;;29.28;37.96;100725.44;4929320;29;20047;-70
2022/07/07 01:35:41;;;;;;;1.13;0.40;;;;;;;29.31;37.65;100721.41;4929646;29;20390;-71
2022/07/07 01:38:06;;;;;;;2.13;0.30;;;;;;;29.34;37.74;100716.31;4931415;29;20036;-71
2022/07/07 01:40:32;;;;;;;2.97;0.30;;;;;;;29.37;38.00;100698.91;4932334;28;20408;-71
2022/07/07 01:42:57;;;;;;;1.42;0.30;;;;;;;29.39;38.07;100697.56;4931130;29;20680;-71
2022/07/07 01:45:22;;;;;;;4.03;0.50;;;;;;;29.42;38.15;100692.78;4937346;29;20034;-70
2022/07/07 01:47:48;;;;;;;3.40;0.30;;;;;;;29.43;37.91;100691.69;4931443;29;20203;-70
2022/07/07 01:50:14;;;;;;;4.00;0.32;;;;;;;29.46;38.08;100696.53;4933173;29;20119;-71
2022/07/07 01:52:39;;;;;;;1.85;0.40;;;;;;;29.46;37.98;100699.22;4929487;29;20539;-71
2022/07/07 01:55:06;;;;;;;3.60;0.30;;;;;;;29.47;37.83;100701.66;4930351;29;20035;-71
2022/07/07 01:57:31;;;;;;;0.50;0.20;;;;;;;29.47;37.87;100700.84;4928962;29;20062;-70
2022/07/07 01:59:56;;;;;;;1.98;0.30;;;;;;;29.49;38.23;100698.69;4919082;29;20035;-71
2022/07/07 02:02:22;;;;;;;0.70;0.30;;;;;;;29.49;38.59;100691.44;4934755;29;20032;-71
2022/07/07 02:04:47;;;;;;;1.23;0.30;;;;;;;29.50;38.02;100700.31;4928924;29;20031;-71
2022/07/07 02:07:13;;;;;;;3.45;0.30;;;;;;;29.50;38.47;100711.84;4931079;29;20127;-71
2022/07/07 02:09:38;;;;;;;3.13;0.30;;;;;;;29.50;38.31;100716.41;4931028;29;20547;-70
2022/07/07 02:12:04;;;;;;;1.58;0.30;;;;;;;29.49;38.45;100731.72;4930649;29;20020;-70
2022/07/07 02:14:29;;;;;;;2.08;0.40;;;;;;;29.50;38.41;100743.25;4929679;29;20035;-71
2022/07/07 02:16:55;;;;;;;1.58;0.30;;;;;;;29.48;38.83;100751.56;4929860;29;20028;-71
2022/07/07 02:19:20;;;;;;;1.15;0.35;;;;;;;29.49;38.96;100771.16;4929895;29;20087;-71
2022/07/07 02:21:46;;;;;;;1.75;0.30;;;;;;;29.49;38.53;100789.97;4934657;29;20039;-70
2022/07/07 02:24:12;;;;;;;2.45;0.50;;;;;;;29.49;38.92;100806.06;4930872;29;20036;-71
2022/07/07 02:26:37;;;;;;;2.88;0.30;;;;;;;29.48;38.70;100842.84;4932852;29;20055;-70
2022/07/07 02:29:03;;;;;;;2.33;0.30;;;;;;;29.48;38.83;100850.88;4931201;29;20051;-71
2022/07/07 02:31:29;;;;;;;0.90;0.20;;;;;;;29.49;39.00;100847.13;4931998;29;20039;-70
2022/07/07 02:33:55;;;;;;;0.90;0.22;;;;;;;29.49;38.68;100830.22;4934232;29;20035;-71
2022/07/07 02:36:20;;;;;;;0.50;0.28;;;;;;;29.49;38.95;100833.72;4932583;28;20067;-69
2022/07/07 02:38:46;;;;;;;0.52;0.20;;;;;;;29.50;38.82;100834.53;4935570;29;20447;-70
2022/07/07 02:41:11;;;;;;;1.95;0.20;;;;;;;29.49;38.66;100836.41;4933626;29;20042;-70
2022/07/07 02:43:37;;;;;;;0.90;0.30;;;;;;;29.50;38.60;100835.34;4934428;29;20040;-70
2022/07/07 02:46:03;;;;;;;0.60;0.30;;;;;;;29.51;39.14;100833.47;4917568;29;20039;-70
2022/07/07 02:48:29;;;;;;;0.60;0.20;;;;;;;29.51;38.83;100831.59;4935992;29;20139;-70
2022/07/07 02:50:55;;;;;;;0.93;0.20;;;;;;;29.51;38.75;100839.63;4938882;28;20103;-70
2022/07/07 02:53:21;;;;;;;1.60;0.20;;;;;;;29.52;38.90;100840.44;4934573;29;20031;-69
2022/07/07 02:55:47;;;;;;;0.45;0.20;;;;;;;29.52;39.09;100841.25;4934776;28;20036;-69
2022/07/07 02:58:19;;;;;;;1.55;0.20;;;;;;;29.53;39.10;100837.50;4933497;29;20027;-70
2022/07/07 03:00:47;;;;;;;0.85;0.20;;;;;;;29.53;39.01;100836.69;4934474;29;20039;-69
2022/07/07 03:03:12;;;;;;;1.00;0.20;;;;;;;29.53;39.37;100834.00;4937003;29;20145;-70
2022/07/07 03:05:38;;;;;;;0.50;0.20;;;;;;;29.53;39.47;100829.44;4933389;29;20246;-69
2022/07/07 03:08:04;;;;;;;0.43;0.20;;;;;;;29.53;39.13;100834.00;4932738;29;20373;-70
2022/07/07 03:10:29;;;;;;;1.30;0.20;;;;;;;29.54;39.60;100846.34;4934170;29;20040;-68
2022/07/07 03:12:55;;;;;;;2.67;0.38;;;;;;;29.53;39.27;100834.81;4933233;29;20110;-69
2022/07/07 03:15:21;;;;;;;1.20;0.25;;;;;;;29.54;39.62;100831.06;4934472;29;20027;-68
2022/07/07 03:17:48;;;;;;;0.82;0.20;;;;;;;29.54;39.33;100816.81;4932981;29;20043;-70
2022/07/07 03:20:15;;;;;;;1.98;0.30;;;;;;;29.55;39.79;100816.56;4933727;29;20027;-69
2022/07/07 03:22:41;;;;;;;1.60;0.20;;;;;;;29.55;39.76;100805.84;4935424;29;20039;-69
2022/07/07 03:25:08;;;;;;;1.23;0.20;;;;;;;29.55;40.06;100816.56;4934460;29;20102;-69
2022/07/07 03:27:34;;;;;;;0.45;0.20;;;;;;;29.55;39.60;100821.94;4932723;28;20468;-68
2022/07/07 03:30:00;;;;;;;1.02;0.20;;;;;;;29.54;40.00;100809.59;4933001;29;20043;-68
2022/07/07 03:32:26;;;;;;;1.30;0.20;;;;;;;29.54;39.92;100804.22;4932750;29;20035;-69
2022/07/07 03:34:51;;;;;;;2.05;0.30;;;;;;;29.54;39.76;100800.72;4933706;29;20031;-68
2022/07/07 03:37:17;;;;;;;2.85;0.32;;;;;;;29.53;40.05;100797.22;4932413;29;20116;-69
2022/07/07 03:39:42;;;;;;;0.70;0.20;;;;;;;29.54;39.83;100787.31;4931491;29;20471;-68
2022/07/07 03:42:08;;;;;;;0.80;0.20;;;;;;;29.55;40.30;100783.53;4933004;29;20468;-69
2022/07/07 03:44:34;;;;;;;0.55;0.20;;;;;;;29.54;39.84;100784.63;4938433;29;20094;-68
2022/07/07 03:46:59;;;;;;;0.50;0.20;;;;;;;29.54;40.48;100788.09;4934899;28;20035;-69
2022/07/07 03:49:25;;;;;;;0.63;0.20;;;;;;;29.54;40.10;100781.94;4932076;29;20103;-69
2022/07/07 03:51:50;;;;;;;0.60;0.20;;;;;;;29.54;40.48;100784.63;4932368;29;20054;-69
2022/07/07 03:54:16;;;;;;;0.70;0.20;;;;;;;29.52;40.50;100782.19;4931646;29;20031;-68
2022/07/07 03:56:41;;;;;;;0.95;0.20;;;;;;;29.53;40.31;100786.50;4933690;29;20330;-68
2022/07/07 03:59:07;;;;;;;1.90;0.40;;;;;;;29.52;40.68;100778.69;4930524;29;20048;-69
2022/07/07 04:01:32;;;;;;;1.30;0.20;;;;;;;29.51;40.78;100775.22;4932146;29;20035;-69
2022/07/07 04:03:58;;;;;;;0.65;0.20;;;;;;;29.50;40.89;100767.41;4934881;29;20035;-69
2022/07/07 04:06:23;;;;;;;1.38;0.20;;;;;;;29.52;40.81;100765.28;4933222;29;20043;-68
2022/07/07 04:08:49;;;;;;;1.25;0.30;;;;;;;29.51;40.66;100767.16;4929340;29;20039;-69
2022/07/07 04:11:16;;;;;;;0.82;0.20;;;;;;;29.52;40.70;100765.28;4934083;29;20035;-68
2022/07/07 04:13:41;;;;;;;1.30;0.30;;;;;;;29.53;40.56;100780.31;4931933;29;20131;-69
2022/07/07 04:16:07;;;;;;;0.50;0.20;;;;;;;29.53;40.61;100773.06;4931577;29;20032;-70
2022/07/07 04:18:33;;;;;;;1.85;0.20;;;;;;;29.53;40.67;100781.13;4934427;29;20118;-70
2022/07/07 04:20:58;;;;;;;0.63;0.20;;;;;;;29.54;40.36;100779.25;4934032;29;20446;-70
2022/07/07 04:23:24;;;;;;;1.15;0.30;;;;;;;29.54;40.35;100781.94;4931552;28;20035;-68
2022/07/07 04:25:49;;;;;;;0.40;0.20;;;;;;;29.56;40.35;100777.09;4934191;29;20420;-69
2022/07/07 04:28:15;;;;;;;0.70;0.20;;;;;;;29.55;40.20;100770.94;4942203;29;20134;-70
2022/07/07 04:30:40;;;;;;;0.40;0.20;;;;;;;29.57;40.35;100762.63;4932994;29;20043;-68
2022/07/07 04:33:06;;;;;;;1.52;0.20;;;;;;;29.58;40.72;100766.91;4912534;29;20040;-69
2022/07/07 04:35:31;;;;;;;0.22;0.10;;;;;;;29.56;40.72;100767.19;4931528;29;20079;-70
2022/07/07 04:37:56;;;;;;;1.40;0.20;;;;;;;29.57;40.30;100765.31;4924723;29;20041;-68
2022/07/07 04:40:22;;;;;;;2.08;0.50;;;;;;;29.57;40.43;100770.66;4941100;29;20028;-69
2022/07/07 04:42:47;;;;;;;0.95;0.20;;;;;;;29.56;40.67;100767.19;4941614;29;20510;-68
2022/07/07 04:45:13;;;;;;;1.08;0.20;;;;;;;29.56;40.45;100767.19;4936457;29;20046;-69
2022/07/07 04:47:42;;;;;;;0.40;0.20;;;;;;;29.56;40.93;100766.38;4932189;29;20020;-69
2022/07/07 04:50:12;;;;;;;1.70;0.35;;;;;;;29.56;41.18;100774.44;4932398;29;20425;-69
2022/07/07 04:52:38;;;;;;;0.88;0.20;;;;;;;29.55;41.08;100765.56;4932758;29;20423;-68
2022/07/07 04:55:04;;;;;;;0.55;0.15;;;;;;;29.54;40.94;100761.25;4932341;29;20515;-69
2022/07/07 04:57:30;;;;;;;0.47;0.20;;;;;;;29.53;41.33;100754.28;4932148;29;20039;-68
2022/07/07 04:59:55;;;;;;;0.57;0.40;;;;;;;29.53;41.24;100758.84;4931007;29;20059;-68
2022/07/07 05:02:21;;;;;;;1.77;0.20;;;;;;;29.53;41.22;100761.53;4930965;29;20028;-69
2022/07/07 05:04:46;;;;;;;0.43;0.20;;;;;;;29.52;40.98;100757.22;4931869;29;20030;-68
2022/07/07 05:07:12;;;;;;;0.70;0.20;;;;;;;29.51;41.26;100756.41;4930784;29;20040;-69
2022/07/07 05:09:37;;;;;;;0.70;0.20;;;;;;;29.50;41.31;100752.13;4936768;29;20091;-68
2022/07/07 05:12:03;;;;;;;1.08;0.20;;;;;;;29.51;40.95;100755.59;4930178;29;20384;-68
2022/07/07 05:14:29;;;;;;;2.03;0.20;;;;;;;29.51;40.88;100758.28;4936282;29;20500;-69
2022/07/07 05:16:55;;;;;;;1.58;0.20;;;;;;;29.51;40.83;100752.94;4931154;29;20039;-69
2022/07/07 05:19:21;;;;;;;0.82;0.20;;;;;;;29.51;40.68;100758.28;4931086;29;20039;-69
2022/07/07 05:21:47;;;;;;;0.45;0.20;;;;;;;29.52;41.22;100765.28;4933565;29;20027;-69
2022/07/07 05:24:12;;;;;;;0.22;0.13;;;;;;;29.53;40.95;100769.59;4932012;29;20519;-68
2022/07/07 05:26:38;;;;;;;0.70;0.20;;;;;;;29.53;41.13;100767.69;4928473;29;20074;-69
2022/07/07 05:29:03;;;;;;;0.50;0.20;;;;;;;29.55;40.67;100772.81;4931634;29;20200;-69
2022/07/07 05:31:28;;;;;;;0.65;0.20;;;;;;;29.56;40.55;100771.75;4931463;29;20492;-68
2022/07/07 05:33:54;;;;;;;1.33;0.20;;;;;;;29.56;40.47;100782.47;4930585;29;20039;-68
2022/07/07 05:36:19;;;;;;;0.55;0.20;;;;;;;29.57;40.62;100784.91;4931573;29;20432;-69
2022/07/07 05:38:45;;;;;;;1.88;0.20;;;;;;;29.59;40.74;100795.38;4930473;29;20124;-70
2022/07/07 05:41:11;;;;;;;0.90;0.20;;;;;;;29.58;40.99;100793.75;4931458;29;20055;-69
2022/07/07 05:43:37;;;;;;;1.58;0.20;;;;;;;29.58;40.75;100796.44;4933808;29;20138;-69
2022/07/07 05:46:02;;;;;;;1.40;0.30;;;;;;;29.58;40.78;100805.31;4934689;29;20032;-69
2022/07/07 05:48:28;;;;;;;0.70;0.20;;;;;;;29.57;40.65;100798.31;4931356;29;20119;-68
2022/07/07 05:50:53;;;;;;;1.13;0.20;;;;;;;29.56;40.84;100796.72;4930237;29;20556;-68
2022/07/07 05:53:19;;;;;;;0.73;0.20;;;;;;;29.56;40.79;100790.53;4930269;29;20583;-69
2022/07/07 05:55:44;;;;;;;0.80;0.30;;;;;;;29.55;40.90;100787.03;4930587;29;20381;-69
2022/07/07 05:58:10;;;;;;;0.55;0.20;;;;;;;29.55;40.99;100783.53;4933548;29;20036;-70
2022/07/07 06:00:35;;;;;;;0.55;0.20;;;;;;;29.55;41.04;100783.53;4931731;29;20094;-69
2022/07/07 06:03:01;;;;;;;1.10;0.10;;;;;;;29.55;41.34;100780.88;4930703;29;20518;-69
2022/07/07 06:05:26;;;;;;;0.95;0.10;;;;;;;29.54;40.97;100777.38;4929286;29;20501;-69
2022/07/07 06:07:52;;;;;;;0.38;0.20;;;;;;;29.53;41.39;100781.13;4932532;29;20027;-68
2022/07/07 06:10:17;;;;;;;1.08;0.22;;;;;;;29.54;41.52;100779.25;4932293;28;20107;-68
2022/07/07 06:12:43;;;;;;;0.82;0.20;;;;;;;29.55;41.56;100778.19;4930379;28;20047;-68
2022/07/07 06:15:10;;;;;;;0.68;0.20;;;;;;;29.55;41.63;100772.81;4931170;29;20457;-69
2022/07/07 06:17:35;;;;;;;0.43;0.20;;;;;;;29.54;41.62;100771.19;4930107;29;20054;-69
2022/07/07 06:20:02;;;;;;;0.52;0.20;;;;;;;29.54;41.28;100765.81;4930797;29;20477;-68
2022/07/07 06:22:28;;;;;;;1.00;0.20;;;;;;;29.54;41.03;100766.63;4930844;29;20037;-68
2022/07/07 06:24:54;;;;;;;0.60;0.17;;;;;;;29.54;41.45;100765.81;4930933;29;20032;-68
2022/07/07 06:27:20;;;;;;;0.65;0.13;;;;;;;29.55;41.04;100767.44;4933212;28;20048;-69
2022/07/07 06:29:47;;;;;;;0.93;0.20;;;;;;;29.56;40.97;100763.69;4931625;29;20111;-69
2022/07/07 06:32:15;;;;;;;0.40;0.20;;;;;;;29.57;41.27;100759.94;4931070;29;20035;-69
2022/07/07 06:34:40;;;;;;;0.40;0.20;;;;;;;29.59;41.01;100755.09;4930682;29;20035;-68
2022/07/07 06:37:06;;;;;;;0.38;0.20;;;;;;;29.60;41.29;100751.34;4930894;29;20437;-68
2022/07/07 06:39:32;;;;;;;1.15;0.20;;;;;;;29.60;41.45;100749.47;4935812;29;20392;-68
2022/07/07 06:41:57;;;;;;;0.50;0.20;;;;;;;29.61;40.95;100750.28;4931596;29;20086;-68
2022/07/07 06:44:23;;;;;;;0.47;0.20;;;;;;;29.62;41.33;100746.53;4929609;29;20054;-68
2022/07/07 06:46:48;;;;;;;0.30;0.20;;;;;;;29.60;41.03;100754.84;4936709;29;20044;-69
2022/07/07 06:49:13;;;;;;;1.05;0.20;;;;;;;29.62;41.45;100749.22;4929908;29;20024;-70
2022/07/07 06:51:39;;;;;;;1.40;0.10;;;;;;;29.62;40.97;100747.34;4932004;29;20036;-68
2022/07/07 06:54:05;;;;;;;0.63;0.20;;;;;;;29.61;41.44;100745.72;4929734;29;20483;-69
2022/07/07 06:56:30;;;;;;;0.60;0.10;;;;;;;29.61;41.06;100740.34;4930597;29;20107;-68
2022/07/07 06:58:55;;;;;;;0.80;0.20;;;;;;;29.62;40.97;100735.78;4929505;29;20032;-69
2022/07/07 07:01:21;;;;;;;0.38;0.20;;;;;;;29.61;41.10;100734.19;4931759;29;20038;-69
2022/07/07 07:03:46;;;;;;;0.43;0.20;;;;;;;29.61;41.40;100736.84;4929150;29;20775;-70
2022/07/07 07:06:12;;;;;;;0.35;0.10;;;;;;;29.61;41.32;100736.84;4930584;29;20035;-69
2022/07/07 07:08:37;;;;;;;0.50;0.20;;;;;;;29.60;41.35;100740.63;4928555;29;20035;-70
2022/07/07 07:11:03;;;;;;;1.50;0.20;;;;;;;29.59;40.84;100739.81;4931905;29;20080;-69
2022/07/07 07:13:29;;;;;;;0.60;0.28;;;;;;;29.59;41.18;100734.44;4930094;29;20036;-69
2022/07/07 07:15:55;;;;;;;0.20;0.10;;;;;;;29.60;41.26;100737.94;4929291;29;20102;-69
2022/07/07 07:18:21;;;;;;;0.25;0.10;;;;;;;29.60;40.88;100737.94;4930690;29;20472;-69
2022/07/07 07:20:46;;;;;;;0.57;0.20;;;;;;;29.61;41.21;100740.34;4934194;29;20036;-69
2022/07/07 07:23:11;;;;;;;0.70;0.20;;;;;;;29.61;41.08;100734.97;4935665;29;20154;-69
2022/07/07 07:25:37;;;;;;;0.65;0.20;;;;;;;29.61;40.64;100728.81;4933110;29;20154;-69
2022/07/07 07:28:02;;;;;;;0.30;0.10;;;;;;;29.61;41.06;100723.44;4932452;29;20095;-69
2022/07/07 07:30:28;;;;;;;0.25;0.10;;;;;;;29.61;40.73;100728.81;4916719;29;20028;-69
2022/07/07 07:32:53;;;;;;;0.35;0.10;;;;;;;29.61;40.66;100726.94;4933207;29;20511;-68
2022/07/07 07:35:19;;;;;;;0.38;0.10;;;;;;;29.61;40.55;100723.44;4932946;29;20481;-69
2022/07/07 07:37:44;;;;;;;1.00;0.15;;;;;;;29.62;40.90;100725.06;4932566;29;20038;-69
2022/07/07 07:40:11;;;;;;;0.45;0.20;;;;;;;29.61;40.94;100729.63;4934421;29;20031;-68
2022/07/07 07:42:37;;;;;;;0.98;0.20;;;;;;;29.60;40.97;100724.50;4934466;29;20114;-69
2022/07/07 07:45:09;;;;;;;0.50;0.20;;;;;;;29.56;40.71;100726.09;4939164;29;20060;-68
2022/07/07 07:47:46;;;;;;;1.40;0.20;;;;;;;29.50;40.51;100727.16;4932100;29;20086;-68
2022/07/07 07:50:18;;;;;;;3.55;0.20;;;;;;;29.49;40.75;100725.53;4920710;29;20110;-69
2022/07/07 07:52:45;;;;;;;1.08;0.17;;;;;;;29.46;40.26;100726.88;4934858;29;20467;-69
2022/07/07 07:55:13;;;;;;;2.65;0.20;;;;;;;29.40;40.02;100723.34;4931751;29;20460;-68
2022/07/07 07:57:39;;;;;;;0.50;0.20;;;;;;;29.39;39.97;100720.91;4942094;29;20038;-68
2022/07/07 08:00:06;;;;;;;1.23;0.20;;;;;;;29.39;39.89;100721.72;4932027;29;20036;-69
2022/07/07 08:02:32;;;;;;;1.80;0.20;;;;;;;29.38;39.98;100720.09;4930892;29;20047;-70
2022/07/07 08:04:57;;;;;;;0.40;0.20;;;;;;;29.33;39.71;100720.06;4937345;29;20311;-70
2022/07/07 08:07:23;;;;;;;0.40;0.10;;;;;;;29.30;39.80;100720.59;4931106;29;20028;-69
2022/07/07 08:09:48;;;;;;;2.30;0.10;;;;;;;29.27;39.32;100723.84;4932712;29;20027;-69
2022/07/07 08:12:14;;;;;;;0.73;0.30;;;;;;;29.23;39.50;100720.06;4931108;29;20071;-70
2022/07/07 08:14:40;;;;;;;0.50;0.20;;;;;;;29.19;39.65;100713.59;4939824;29;20082;-69
2022/07/07 08:17:06;;;;;;;1.10;0.20;;;;;;;29.22;39.57;100709.59;4933187;29;20456;-69
2022/07/07 08:19:31;;;;;;;1.42;0.30;;;;;;;29.23;39.37;100708.53;4932868;29;20031;-69
2022/07/07 08:21:57;;;;;;;1.15;0.20;;;;;;;29.26;39.28;100702.63;4932886;29;20404;-70
2022/07/07 08:24:22;;;;;;;0.73;0.13;;;;;;;29.26;39.41;100706.13;4931712;29;20039;-69
2022/07/07 08:26:48;;;;;;;2.40;0.20;;;;;;;29.27;39.80;100701.56;4932216;29;20049;-69
2022/07/07 08:29:14;;;;;;;0.50;0.20;;;;;;;29.23;39.19;100701.28;4932533;29;20035;-69
2022/07/07 08:31:40;;;;;;;1.70;0.20;;;;;;;29.23;39.28;100695.91;4932691;29;20130;-70
2022/07/07 08:34:05;;;;;;;0.75;0.20;;;;;;;29.23;39.92;100690.56;4932371;29;20053;-70
2022/07/07 08:36:31;;;;;;;1.25;0.20;;;;;;;29.32;40.37;100688.94;4933016;29;20032;-69
2022/07/07 08:38:57;;;;;;;3.88;0.30;;;;;;;29.44;40.76;100687.94;4932671;29;20499;-70
2022/07/07 08:41:23;;;;;;;1.27;0.20;;;;;;;29.49;40.92;100682.59;4931702;29;20091;-68
2022/07/07 08:43:49;;;;;;;2.20;0.40;;;;;;;29.50;41.57;100682.34;4931117;29;20040;-68
2022/07/07 08:46:15;;;;;;;2.88;0.30;;;;;;;29.43;40.49;100681.78;4941545;29;20081;-71
2022/07/07 08:48:41;;;;;;;2.47;0.30;;;;;;;29.38;40.73;100674.47;4931649;29;20370;-70
2022/07/07 08:51:07;;;;;;;0.55;0.30;;;;;;;29.33;40.88;100669.09;4932613;29;20035;-69
2022/07/07 08:53:36;;;;;;;0.60;0.20;;;;;;;29.28;40.16;100666.41;4930212;29;20023;-70
2022/07/07 08:56:07;;;;;;;1.10;0.20;;;;;;;29.25;40.18;100669.63;4934639;29;20067;-69
2022/07/07 08:58:35;;;;;;;1.52;0.20;;;;;;;29.23;40.43;100669.09;4918924;29;20032;-71
2022/07/07 09:01:05;;;;;;;0.90;0.30;;;;;;;29.25;40.34;100671.50;4931486;29;20444;-70
2022/07/07 09:03:30;;;;;;;0.95;0.30;;;;;;;29.25;40.28;100666.94;4931486;29;20028;-70
2022/07/07 09:05:57;;;;;;;1.83;0.20;;;;;;;29.27;39.87;100659.44;4932589;29;20035;-69
2022/07/07 09:08:25;;;;;;;2.20;0.20;;;;;;;29.26;40.03;100660.50;4934328;29;20167;-69
2022/07/07 09:10:51;;;;;;;3.72;0.30;;;;;;;29.21;39.71;100660.50;4930747;29;20114;-70
2022/07/07 09:13:26;;;;;;;0.30;0.15;;;;;;;29.17;40.07;100658.59;4930904;29;20042;-70
2022/07/07 09:15:58;;;;;;;1.30;0.20;;;;;;;29.17;40.25;100656.72;4930129;29;20440;-70
2022/07/07 09:18:33;;;;;;;0.63;0.20;;;;;;;29.16;39.87;100660.47;4933688;29;20396;-70
2022/07/07 09:20:59;;;;;;;0.35;0.17;;;;;;;29.15;40.14;100666.91;4940673;29;20396;-70
2022/07/07 09:23:25;;;;;;;0.50;0.20;;;;;;;29.14;40.01;100662.59;4930520;29;20036;-70
2022/07/07 09:25:50;;;;;;;3.05;0.20;;;;;;;29.13;40.15;100662.88;4930895;29;20032;-70
2022/07/07 09:28:16;;;;;;;2.60;0.30;;;;;;;29.11;40.15;100660.44;4932049;29;20415;-70
2022/07/07 09:30:48;;;;;;;4.25;0.50;;;;;;;29.10;40.37;100660.72;4930434;29;20063;-69
2022/07/07 09:33:24;;;;;;;0.60;0.20;;;;;;;29.06;40.31;100658.53;4930719;29;20087;-69
2022/07/07 09:38:38;;;;;;;0.35;0.20;;;;;;;29.08;40.27;100655.59;4928345;29;20103;-69
2022/07/07 09:41:12;;;;;;;2.53;0.20;;;;;;;29.08;40.06;100655.59;4931193;29;20031;-69
2022/07/07 09:43:45;;;;;;;0.88;0.20;;;;;;;29.06;39.19;100652.38;4936283;29;20043;-68
2022/07/07 09:46:20;;;;;;;0.40;0.10;;;;;;;29.06;39.30;100649.69;4930091;29;20027;-69
2022/07/07 09:48:48;;;;;;;1.75;0.10;;;;;;;29.07;39.53;100643.25;4929669;29;20036;-70
2022/07/07 09:51:33;;;;;;;0.50;0.20;;;;;;;29.04;38.86;100644.59;4932912;29;20059;-70
2022/07/07 09:54:04;;;;;;;0.20;0.10;;;;;;;29.03;38.71;100647.53;4929833;29;20023;-70
2022/07/07 09:56:30;;;;;;;0.40;0.15;;;;;;;29.01;38.82;100647.00;4929788;29;20306;-69
2022/07/07 09:58:56;;;;;;;0.45;0.10;;;;;;;29.01;38.77;100647.78;4930459;29;20362;-69
2022/07/07 10:01:25;;;;;;;0.32;0.10;;;;;;;28.97;38.67;100641.34;4930165;29;20071;-69
2022/07/07 10:04:06;;;;;;;1.75;0.17;;;;;;;28.95;38.96;100645.34;4931105;29;20027;-69
2022/07/07 10:06:34;;;;;;;0.35;0.10;;;;;;;28.98;38.63;100634.91;4930691;29;20031;-70
2022/07/07 10:09:18;;;;;;;0.55;0.10;;;;;;;28.97;39.10;100635.97;4931340;29;20036;-69
2022/07/07 10:11:45;;;;;;;0.30;0.10;;;;;;;28.98;38.64;100636.78;4933198;29;20142;-70
2022/07/07 10:14:20;;;;;;;2.35;0.10;;;;;;;28.99;38.61;100635.72;4930967;29;21372;-70
2022/07/07 10:16:49;;;;;;;0.45;0.30;;;;;;;28.99;39.02;100630.34;4929601;29;20373;-70
2022/07/07 10:19:17;;;;;;;2.00;0.10;;;;;;;28.96;39.25;100634.38;4930618;29;20058;-70
2022/07/07 10:21:46;;;;;;;0.50;0.10;;;;;;;28.95;39.33;100629.25;4929759;29;20031;-70
2022/07/07 10:24:13;;;;;;;0.30;0.10;;;;;;;28.98;39.01;100636.78;4929971;29;20067;-70
2022/07/07 10:26:50;;;;;;;0.68;0.13;;;;;;;28.91;39.06;100625.47;4933222;28;20061;-70
2022/07/07 10:29:17;;;;;;;0.52;0.10;;;;;;;28.91;38.39;100631.66;4933414;29;20039;-71
2022/07/07 10:31:50;;;;;;;0.70;0.10;;;;;;;28.89;38.07;100627.63;4930331;29;20067;-69
2022/07/07 10:34:15;;;;;;;0.20;0.10;;;;;;;28.90;38.27;100629.22;4933210;29;20059;-70
2022/07/07 10:36:50;;;;;;;0.30;0.10;;;;;;;28.90;37.80;100615.81;4929117;29;20031;-70
2022/07/07 10:39:23;;;;;;;0.17;0.10;;;;;;;28.93;37.99;100623.34;4929957;29;20408;-69
2022/07/07 10:42:02;;;;;;;0.65;0.10;;;;;;;28.93;38.16;100620.66;4930615;29;20392;-71
2022/07/07 10:44:28;;;;;;;0.50;0.10;;;;;;;28.92;38.40;100619.88;4933452;29;20535;-70
2022/07/07 10:47:17;;;;;;;0.40;0.10;;;;;;;28.94;38.25;100616.91;4930518;29;20036;-70
2022/07/07 10:49:54;;;;;;;0.75;0.20;;;;;;;28.93;38.21;100608.06;4919998;29;20110;-69
2022/07/07 10:52:21;;;;;;;0.38;0.20;;;;;;;28.94;38.21;100606.19;4928014;29;20540;-70
2022/07/07 10:55:04;;;;;;;0.47;0.10;;;;;;;28.93;38.19;100604.56;4930612;29;20441;-70
2022/07/07 10:57:39;;;;;;;0.25;0.10;;;;;;;28.92;38.29;100597.59;4929853;29;20241;-70
2022/07/07 11:00:10;;;;;;;0.30;0.10;;;;;;;28.92;38.49;100594.91;4933622;29;20032;-71
2022/07/07 11:02:42;;;;;;;0.40;0.13;;;;;;;28.91;38.09;100588.75;4932883;29;20154;-69
2022/07/07 11:05:13;;;;;;;0.40;0.13;;;;;;;28.92;38.33;100582.31;4933500;29;20412;-71
2022/07/07 11:07:41;;;;;;;1.33;0.10;;;;;;;28.93;37.78;100577.75;4933399;29;20351;-71
2022/07/07 11:10:11;;;;;;;0.52;0.10;;;;;;;28.93;37.64;100573.19;4936282;28;20046;-70
2022/07/07 11:12:41;;;;;;;0.10;0.10;;;;;;;28.94;37.57;100574.81;4933229;29;20158;-70
2022/07/07 11:15:21;;;;;;;0.70;0.10;;;;;;;28.93;37.54;100575.88;4933358;29;20051;-70
2022/07/07 11:17:57;;;;;;;1.13;0.20;;;;;;;28.94;37.53;100563.28;4933504;29;20328;-70
2022/07/07 11:20:27;;;;;;;0.75;0.20;;;;;;;28.94;37.10;100557.91;4935359;29;20031;-71
2022/07/07 11:23:05;;;;;;;0.20;0.10;;;;;;;28.96;37.46;100553.91;4923719;29;20083;-69
2022/07/07 11:25:32;;;;;;;0.40;0.10;;;;;;;29.00;37.62;100552.31;4935636;29;20490;-70